sensor_id;sensor_type;location;lat;lon;timestamp;pressure;altitude;pressure_sealevel;temperature;humidity
19860;BME280;2395;50.738;7.122;2022-08-19T00:00:36;100748.28;;;21.22;70.76
19860;BME280;2395;50.738;7.122;2022-08-19T00:03:04;100747.13;;;21.15;71.07
19860;BME280;2395;50.738;7.122;2022-08-19T00:05:34;100740.00;;;21.06;71.20
19860;BME280;2395;50.738;7.122;2022-08-19T00:08:01;100742.97;;;20.91;70.49
19860;BME280;2395;50.738;7.122;2022-08-19T00:10:29;100738.13;;;20.97;70.70
19860;BME280;2395;50.738;7.122;2022-08-19T00:12:56;100744.50;;;20.93;70.17
19860;BME280;2395;50.738;7.122;2022-08-19T00:15:23;100749.50;;;20.96;69.29
19860;BME280;2395;50.738;7.122;2022-08-19T00:17:49;100755.06;;;20.92;69.80
19860;BME280;2395;50.738;7.122;2022-08-19T00:20:20;100746.16;;;20.94;70.12
19860;BME280;2395;50.738;7.122;2022-08-19T00:22:48;100755.78;;;20.94;69.81
19860;BME280;2395;50.738;7.122;2022-08-19T00:25:16;100752.56;;;20.90;70.33
19860;BME280;2395;50.738;7.122;2022-08-19T00:27:43;100757.44;;;20.95;69.96
19860;BME280;2395;50.738;7.122;2022-08-19T00:30:11;100757.78;;;20.90;70.65
19860;BME280;2395;50.738;7.122;2022-08-19T00:32:39;100761.94;;;20.93;70.51
19860;BME280;2395;50.738;7.122;2022-08-19T00:35:08;100756.13;;;21.00;70.22
19860;BME280;2395;50.738;7.122;2022-08-19T00:37:36;100766.09;;;21.06;69.92
19860;BME280;2395;50.738;7.122;2022-08-19T00:40:07;100769.66;;;21.16;69.53
19860;BME280;2395;50.738;7.122;2022-08-19T00:42:34;100766.34;;;21.14;68.85
19860;BME280;2395;50.738;7.122;2022-08-19T00:45:10;100766.34;;;21.14;68.94
19860;BME280;2395;50.738;7.122;2022-08-19T00:47:37;100766.34;;;21.14;69.14
19860;BME280;2395;50.738;7.122;2022-08-19T00:50:06;100763.00;;;21.12;68.90
19860;BME280;2395;50.738;7.122;2022-08-19T00:52:41;100761.81;;;21.05;69.69
19860;BME280;2395;50.738;7.122;2022-08-19T00:55:18;100765.28;;;20.95;70.36
19860;BME280;2395;50.738;7.122;2022-08-19T00:57:53;100772.13;;;20.96;69.74
19860;BME280;2395;50.738;7.122;2022-08-19T01:00:25;100770.38;;;20.85;70.52
19860;BME280;2395;50.738;7.122;2022-08-19T01:02:52;100769.06;;;20.80;70.90
19860;BME280;2395;50.738;7.122;2022-08-19T01:05:24;100766.81;;;20.86;70.41
19860;BME280;2395;50.738;7.122;2022-08-19T01:07:54;100760.94;;;20.72;70.89
19860;BME280;2395;50.738;7.122;2022-08-19T01:10:27;100775.50;;;20.63;72.11
19860;BME280;2395;50.738;7.122;2022-08-19T01:12:55;100765.50;;;20.36;72.50
19860;BME280;2395;50.738;7.122;2022-08-19T01:15:29;100752.09;;;20.29;74.03
19860;BME280;2395;50.738;7.122;2022-08-19T01:18:01;100749.53;;;20.51;73.22
19860;BME280;2395;50.738;7.122;2022-08-19T01:20:29;100741.84;;;20.50;73.28
19860;BME280;2395;50.738;7.122;2022-08-19T01:22:59;100739.91;;;20.52;72.58
19860;BME280;2395;50.738;7.122;2022-08-19T01:25:32;100744.69;;;20.58;73.25
19860;BME280;2395;50.738;7.122;2022-08-19T01:27:59;100748.59;;;20.52;73.44
19860;BME280;2395;50.738;7.122;2022-08-19T01:30:30;100748.63;;;20.63;73.22
19860;BME280;2395;50.738;7.122;2022-08-19T01:32:58;100742.91;;;20.58;72.96
19860;BME280;2395;50.738;7.122;2022-08-19T01:35:29;100745.13;;;20.52;73.37
19860;BME280;2395;50.738;7.122;2022-08-19T01:38:02;100738.00;;;20.43;73.81
19860;BME280;2395;50.738;7.122;2022-08-19T01:40:37;100745.84;;;20.54;73.13
19860;BME280;2395;50.738;7.122;2022-08-19T01:43:06;100752.97;;;20.52;73.45
19860;BME280;2395;50.738;7.122;2022-08-19T01:45:35;100745.25;;;20.39;74.05
19860;BME280;2395;50.738;7.122;2022-08-19T01:48:04;100749.03;;;20.35;74.10
19860;BME280;2395;50.738;7.122;2022-08-19T01:50:32;100752.50;;;20.47;73.80
19860;BME280;2395;50.738;7.122;2022-08-19T01:53:04;100755.75;;;20.27;73.75
19860;BME280;2395;50.738;7.122;2022-08-19T01:55:31;100755.16;;;20.23;74.44
19860;BME280;2395;50.738;7.122;2022-08-19T01:58:02;100760.28;;;20.36;73.57
19860;BME280;2395;50.738;7.122;2022-08-19T02:00:32;100762.41;;;20.31;73.02
19860;BME280;2395;50.738;7.122;2022-08-19T02:02:59;100763.06;;;20.22;73.99
19860;BME280;2395;50.738;7.122;2022-08-19T02:05:28;100759.16;;;20.16;73.84
19860;BME280;2395;50.738;7.122;2022-08-19T02:07:55;100750.50;;;20.16;73.64
19860;BME280;2395;50.738;7.122;2022-08-19T02:10:24;100749.06;;;20.12;74.60
19860;BME280;2395;50.738;7.122;2022-08-19T02:12:51;100743.41;;;20.18;73.66
19860;BME280;2395;50.738;7.122;2022-08-19T02:15:19;100743.84;;;20.12;74.59
19860;BME280;2395;50.738;7.122;2022-08-19T02:17:48;100746.69;;;20.09;75.02
19860;BME280;2395;50.738;7.122;2022-08-19T02:20:16;100740.09;;;20.16;74.06
19860;BME280;2395;50.738;7.122;2022-08-19T02:22:44;100746.84;;;20.18;74.36
19860;BME280;2395;50.738;7.122;2022-08-19T02:25:13;100741.88;;;20.15;73.57
19860;BME280;2395;50.738;7.122;2022-08-19T02:27:42;100742.91;;;20.13;74.03
19860;BME280;2395;50.738;7.122;2022-08-19T02:30:17;100750.63;;;20.14;74.87
19860;BME280;2395;50.738;7.122;2022-08-19T02:32:44;100746.84;;;20.18;74.07
19860;BME280;2395;50.738;7.122;2022-08-19T02:35:13;100745.50;;;20.02;74.83
19860;BME280;2395;50.738;7.122;2022-08-19T02:37:41;100753.09;;;19.92;75.11
19860;BME280;2395;50.738;7.122;2022-08-19T02:40:26;100765.38;;;20.03;74.63
19860;BME280;2395;50.738;7.122;2022-08-19T02:42:55;100760.41;;;20.00;74.78
19860;BME280;2395;50.738;7.122;2022-08-19T02:45:22;100755.28;;;19.98;75.48
19860;BME280;2395;50.738;7.122;2022-08-19T02:47:49;100762.81;;;19.90;75.82
19860;BME280;2395;50.738;7.122;2022-08-19T02:50:16;100765.53;;;19.89;76.22
19860;BME280;2395;50.738;7.122;2022-08-19T02:52:44;100764.59;;;19.90;75.54
19860;BME280;2395;50.738;7.122;2022-08-19T02:55:11;100764.00;;;19.86;75.56
19860;BME280;2395;50.738;7.122;2022-08-19T02:57:38;100765.13;;;19.82;75.89
19860;BME280;2395;50.738;7.122;2022-08-19T03:00:09;100768.28;;;19.75;76.71
19860;BME280;2395;50.738;7.122;2022-08-19T03:02:37;100771.16;;;19.83;75.91
19860;BME280;2395;50.738;7.122;2022-08-19T03:05:07;100765.00;;;19.84;76.36
19860;BME280;2395;50.738;7.122;2022-08-19T03:07:35;100770.84;;;19.87;75.86
19860;BME280;2395;50.738;7.122;2022-08-19T03:10:02;100770.94;;;19.86;76.46
19860;BME280;2395;50.738;7.122;2022-08-19T03:12:30;100773.75;;;19.72;76.33
19860;BME280;2395;50.738;7.122;2022-08-19T03:14:57;100770.34;;;19.82;76.95
19860;BME280;2395;50.738;7.122;2022-08-19T03:17:25;100762.25;;;19.75;77.11
19860;BME280;2395;50.738;7.122;2022-08-19T03:19:52;100764.41;;;19.57;77.21
19860;BME280;2395;50.738;7.122;2022-08-19T03:22:19;100761.47;;;19.62;76.53
19860;BME280;2395;50.738;7.122;2022-08-19T03:24:46;100766.75;;;19.73;76.73
19860;BME280;2395;50.738;7.122;2022-08-19T03:27:13;100768.75;;;19.69;76.13
19860;BME280;2395;50.738;7.122;2022-08-19T03:29:40;100772.78;;;19.73;76.52
19860;BME280;2395;50.738;7.122;2022-08-19T03:32:07;100779.94;;;19.82;75.95
19860;BME280;2395;50.738;7.122;2022-08-19T03:34:37;100772.13;;;19.82;76.24
19860;BME280;2395;50.738;7.122;2022-08-19T03:37:08;100784.72;;;19.88;75.33
19860;BME280;2395;50.738;7.122;2022-08-19T03:39:37;100778.78;;;19.86;76.26
19860;BME280;2395;50.738;7.122;2022-08-19T03:42:05;100777.81;;;19.87;75.82
19860;BME280;2395;50.738;7.122;2022-08-19T03:44:32;100775.34;;;19.85;75.05
19860;BME280;2395;50.738;7.122;2022-08-19T03:47:02;100774.75;;;19.82;75.05
19860;BME280;2395;50.738;7.122;2022-08-19T03:49:32;100776.44;;;19.71;75.21
19860;BME280;2395;50.738;7.122;2022-08-19T03:52:03;100773.44;;;19.64;75.89
19860;BME280;2395;50.738;7.122;2022-08-19T03:54:33;100778.97;;;19.60;77.02
19860;BME280;2395;50.738;7.122;2022-08-19T03:57:00;100777.81;;;19.64;76.55
19860;BME280;2395;50.738;7.122;2022-08-19T03:59:31;100787.34;;;19.52;77.18
19860;BME280;2395;50.738;7.122;2022-08-19T04:02:02;100782.84;;;19.54;76.40
19860;BME280;2395;50.738;7.122;2022-08-19T04:04:29;100789.22;;;19.50;77.58
19860;BME280;2395;50.738;7.122;2022-08-19T04:06:56;100795.25;;;19.51;76.46
19860;BME280;2395;50.738;7.122;2022-08-19T04:09:25;100793.38;;;19.53;76.55
19860;BME280;2395;50.738;7.122;2022-08-19T04:11:55;100793.66;;;19.96;77.43
19860;BME280;2395;50.738;7.122;2022-08-19T04:14:26;100795.56;;;19.82;76.20
19860;BME280;2395;50.738;7.122;2022-08-19T04:16:54;100795.81;;;20.02;76.45
19860;BME280;2395;50.738;7.122;2022-08-19T04:19:21;100791.09;;;20.07;75.32
19860;BME280;2395;50.738;7.122;2022-08-19T04:21:52;100790.59;;;20.02;74.91
19860;BME280;2395;50.738;7.122;2022-08-19T04:24:21;100791.63;;;19.77;75.72
19860;BME280;2395;50.738;7.122;2022-08-19T04:26:50;100800.47;;;20.10;74.95
19860;BME280;2395;50.738;7.122;2022-08-19T04:29:21;100804.47;;;19.90;75.09
19860;BME280;2395;50.738;7.122;2022-08-19T04:31:52;100800.81;;;20.05;76.03
19860;BME280;2395;50.738;7.122;2022-08-19T04:34:22;100796.34;;;20.53;73.74
19860;BME280;2395;50.738;7.122;2022-08-19T04:36:52;100799.53;;;20.79;72.71
19860;BME280;2395;50.738;7.122;2022-08-19T04:39:22;100794.94;;;20.94;72.28
19860;BME280;2395;50.738;7.122;2022-08-19T04:42:11;100797.16;;;21.20;70.79
19860;BME280;2395;50.738;7.122;2022-08-19T04:44:56;100800.03;;;20.95;72.18
19860;BME280;2395;50.738;7.122;2022-08-19T04:47:24;100804.88;;;20.89;71.82
19860;BME280;2395;50.738;7.122;2022-08-19T04:49:51;100810.47;;;21.06;71.28
19860;BME280;2395;50.738;7.122;2022-08-19T04:52:18;100810.69;;;21.03;71.64
19860;BME280;2395;50.738;7.122;2022-08-19T04:54:45;100815.06;;;20.47;72.57
19860;BME280;2395;50.738;7.122;2022-08-19T04:57:13;100810.31;;;20.17;74.60
19860;BME280;2395;50.738;7.122;2022-08-19T04:59:40;100824.25;;;19.93;76.09
19860;BME280;2395;50.738;7.122;2022-08-19T05:02:08;100815.78;;;19.78;76.19
19860;BME280;2395;50.738;7.122;2022-08-19T05:04:36;100818.69;;;19.86;76.83
19860;BME280;2395;50.738;7.122;2022-08-19T05:07:05;100827.97;;;19.78;76.67
19860;BME280;2395;50.738;7.122;2022-08-19T05:09:32;100834.34;;;19.74;77.32
19860;BME280;2395;50.738;7.122;2022-08-19T05:11:59;100833.31;;;19.77;77.35
19860;BME280;2395;50.738;7.122;2022-08-19T05:14:27;100824.56;;;19.65;77.58
19860;BME280;2395;50.738;7.122;2022-08-19T05:16:54;100830.06;;;19.73;77.50
19860;BME280;2395;50.738;7.122;2022-08-19T05:19:21;100835.50;;;19.70;77.96
19860;BME280;2395;50.738;7.122;2022-08-19T05:22:06;100836.25;;;19.72;77.72
19860;BME280;2395;50.738;7.122;2022-08-19T05:24:50;100841.34;;;19.74;77.21
19860;BME280;2395;50.738;7.122;2022-08-19T05:27:17;100835.84;;;19.66;78.14
19860;BME280;2395;50.738;7.122;2022-08-19T05:29:46;100848.22;;;19.75;77.29
19860;BME280;2395;50.738;7.122;2022-08-19T05:32:14;100849.97;;;19.74;78.36
19860;BME280;2395;50.738;7.122;2022-08-19T05:34:42;100843.00;;;19.75;77.30
19860;BME280;2395;50.738;7.122;2022-08-19T05:37:10;100841.72;;;19.80;78.21
19860;BME280;2395;50.738;7.122;2022-08-19T05:39:39;100843.09;;;19.73;77.68
19860;BME280;2395;50.738;7.122;2022-08-19T05:42:10;100843.41;;;19.81;77.43
19860;BME280;2395;50.738;7.122;2022-08-19T05:44:42;100845.06;;;19.82;78.18
19860;BME280;2395;50.738;7.122;2022-08-19T05:47:13;100846.41;;;19.75;77.67
19860;BME280;2395;50.738;7.122;2022-08-19T05:49:40;100849.97;;;19.74;77.99
19860;BME280;2395;50.738;7.122;2022-08-19T05:52:11;100848.28;;;19.73;78.07
19860;BME280;2395;50.738;7.122;2022-08-19T05:54:40;100855.16;;;19.74;79.15
19860;BME280;2395;50.738;7.122;2022-08-19T05:57:09;100854.97;;;19.77;79.26
19860;BME280;2395;50.738;7.122;2022-08-19T05:59:36;100856.56;;;19.67;78.83
19860;BME280;2395;50.738;7.122;2022-08-19T06:02:05;100856.75;;;19.77;79.65
19860;BME280;2395;50.738;7.122;2022-08-19T06:04:34;100852.75;;;19.83;79.03
19860;BME280;2395;50.738;7.122;2022-08-19T06:07:01;100848.09;;;19.76;79.77
19860;BME280;2395;50.738;7.122;2022-08-19T06:09:29;100850.03;;;19.85;78.61
19860;BME280;2395;50.738;7.122;2022-08-19T06:11:58;100856.31;;;19.82;78.89
19860;BME280;2395;50.738;7.122;2022-08-19T06:14:29;100852.63;;;19.85;78.75
19860;BME280;2395;50.738;7.122;2022-08-19T06:16:57;100859.09;;;19.92;78.87
19860;BME280;2395;50.738;7.122;2022-08-19T06:19:28;100861.44;;;19.72;79.61
19860;BME280;2395;50.738;7.122;2022-08-19T06:21:59;100858.47;;;19.88;79.60
19860;BME280;2395;50.738;7.122;2022-08-19T06:24:29;100854.59;;;19.94;79.06
19860;BME280;2395;50.738;7.122;2022-08-19T06:26:59;100854.72;;;19.92;78.81
19860;BME280;2395;50.738;7.122;2022-08-19T06:29:27;100852.81;;;20.07;78.19
19860;BME280;2395;50.738;7.122;2022-08-19T06:31:58;100852.09;;;20.05;79.11
19860;BME280;2395;50.738;7.122;2022-08-19T06:34:27;100859.03;;;20.17;78.39
19860;BME280;2395;50.738;7.122;2022-08-19T06:36:59;100872.44;;;20.23;78.23
19860;BME280;2395;50.738;7.122;2022-08-19T06:39:31;100870.09;;;20.31;77.63
19860;BME280;2395;50.738;7.122;2022-08-19T06:42:02;100871.50;;;20.48;77.03
19860;BME280;2395;50.738;7.122;2022-08-19T06:44:35;100873.72;;;20.41;77.94
19860;BME280;2395;50.738;7.122;2022-08-19T06:47:04;100865.44;;;20.24;77.84
19860;BME280;2395;50.738;7.122;2022-08-19T06:49:32;100857.97;;;20.19;78.88
19860;BME280;2395;50.738;7.122;2022-08-19T06:52:02;100870.28;;;20.41;78.55
19860;BME280;2395;50.738;7.122;2022-08-19T06:54:30;100871.72;;;20.45;77.90
19860;BME280;2395;50.738;7.122;2022-08-19T06:56:57;100868.06;;;20.58;77.08
19860;BME280;2395;50.738;7.122;2022-08-19T06:59:29;100872.97;;;21.08;75.01
19860;BME280;2395;50.738;7.122;2022-08-19T07:02:01;100872.16;;;21.07;75.26
19860;BME280;2395;50.738;7.122;2022-08-19T07:04:32;100868.47;;;21.10;75.28
19860;BME280;2395;50.738;7.122;2022-08-19T07:07:04;100879.84;;;20.98;74.92
19860;BME280;2395;50.738;7.122;2022-08-19T07:09:33;100876.84;;;20.80;76.12
19860;BME280;2395;50.738;7.122;2022-08-19T07:12:04;100879.00;;;20.86;76.14
19860;BME280;2395;50.738;7.122;2022-08-19T07:14:33;100874.75;;;20.96;75.67
19860;BME280;2395;50.738;7.122;2022-08-19T07:17:07;100879.75;;;21.10;75.02
19860;BME280;2395;50.738;7.122;2022-08-19T07:19:37;100879.06;;;21.19;74.37
19860;BME280;2395;50.738;7.122;2022-08-19T07:22:07;100887.84;;;21.18;74.88
19860;BME280;2395;50.738;7.122;2022-08-19T07:24:36;100893.91;;;21.30;74.45
19860;BME280;2395;50.738;7.122;2022-08-19T07:27:06;100890.63;;;21.60;73.50
19860;BME280;2395;50.738;7.122;2022-08-19T07:29:35;100905.44;;;21.82;71.93
19860;BME280;2395;50.738;7.122;2022-08-19T07:32:04;100898.53;;;21.92;72.07
19860;BME280;2395;50.738;7.122;2022-08-19T07:34:32;100902.38;;;21.88;71.66
19860;BME280;2395;50.738;7.122;2022-08-19T07:37:03;100898.63;;;22.12;70.76
19860;BME280;2395;50.738;7.122;2022-08-19T07:39:35;100901.34;;;22.22;70.60
19860;BME280;2395;50.738;7.122;2022-08-19T07:42:08;100904.50;;;22.47;69.84
19860;BME280;2395;50.738;7.122;2022-08-19T07:44:37;100903.00;;;22.34;70.29
19860;BME280;2395;50.738;7.122;2022-08-19T07:47:05;100905.81;;;22.42;69.55
19860;BME280;2395;50.738;7.122;2022-08-19T07:49:32;100903.59;;;22.37;70.13
19860;BME280;2395;50.738;7.122;2022-08-19T07:52:06;100913.50;;;22.54;69.67
19860;BME280;2395;50.738;7.122;2022-08-19T07:54:40;100904.38;;;22.80;68.31
19860;BME280;2395;50.738;7.122;2022-08-19T07:57:08;100901.41;;;22.94;68.17
19860;BME280;2395;50.738;7.122;2022-08-19T07:59:35;100905.59;;;23.17;67.14
19860;BME280;2395;50.738;7.122;2022-08-19T08:02:03;100903.38;;;23.12;67.18
19860;BME280;2395;50.738;7.122;2022-08-19T08:04:31;100908.03;;;23.09;67.12
19860;BME280;2395;50.738;7.122;2022-08-19T08:07:15;100915.63;;;23.01;66.55
19860;BME280;2395;50.738;7.122;2022-08-19T08:10:04;100916.41;;;22.92;67.36
19860;BME280;2395;50.738;7.122;2022-08-19T08:12:39;100923.88;;;22.96;66.62
19860;BME280;2395;50.738;7.122;2022-08-19T08:15:13;100918.41;;;22.99;66.48
19860;BME280;2395;50.738;7.122;2022-08-19T08:17:43;100906.97;;;23.21;66.55
19860;BME280;2395;50.738;7.122;2022-08-19T08:20:11;100903.50;;;23.40;65.60
19860;BME280;2395;50.738;7.122;2022-08-19T08:22:43;100908.97;;;23.28;65.76
19860;BME280;2395;50.738;7.122;2022-08-19T08:25:30;100906.09;;;23.31;65.65
19860;BME280;2395;50.738;7.122;2022-08-19T08:27:58;100909.97;;;23.66;64.38
19860;BME280;2395;50.738;7.122;2022-08-19T08:30:29;100907.47;;;23.65;64.39
19860;BME280;2395;50.738;7.122;2022-08-19T08:32:58;100908.63;;;23.42;64.47
19860;BME280;2395;50.738;7.122;2022-08-19T08:35:25;100908.00;;;23.49;64.03
19860;BME280;2395;50.738;7.122;2022-08-19T08:37:54;100910.22;;;23.54;63.77
19860;BME280;2395;50.738;7.122;2022-08-19T08:40:31;100913.63;;;23.75;63.34
19860;BME280;2395;50.738;7.122;2022-08-19T08:43:11;100912.06;;;23.72;63.26
19860;BME280;2395;50.738;7.122;2022-08-19T08:45:50;100922.69;;;23.71;64.07
19860;BME280;2395;50.738;7.122;2022-08-19T08:48:24;100919.22;;;23.91;63.06
19860;BME280;2395;50.738;7.122;2022-08-19T08:50:56;100940.03;;;23.83;62.60
19860;BME280;2395;50.738;7.122;2022-08-19T08:53:25;100926.13;;;23.71;63.80
19860;BME280;2395;50.738;7.122;2022-08-19T08:55:54;100931.38;;;24.01;61.81
19860;BME280;2395;50.738;7.122;2022-08-19T08:58:32;100922.75;;;23.80;62.68
19860;BME280;2395;50.738;7.122;2022-08-19T09:01:09;100920.78;;;23.73;63.16
19860;BME280;2395;50.738;7.122;2022-08-19T09:03:40;100912.34;;;24.09;62.23
19860;BME280;2395;50.738;7.122;2022-08-19T09:06:17;100916.38;;;24.13;62.69
19860;BME280;2395;50.738;7.122;2022-08-19T09:08:58;100912.38;;;24.18;62.82
19860;BME280;2395;50.738;7.122;2022-08-19T09:11:41;100911.97;;;24.22;63.34
19860;BME280;2395;50.738;7.122;2022-08-19T09:14:26;100917.53;;;24.48;60.80
19860;BME280;2395;50.738;7.122;2022-08-19T09:16:59;100913.47;;;24.34;61.52
19860;BME280;2395;50.738;7.122;2022-08-19T09:19:26;100915.69;;;24.20;62.11
19860;BME280;2395;50.738;7.122;2022-08-19T09:21:53;100914.34;;;24.63;61.52
19860;BME280;2395;50.738;7.122;2022-08-19T09:24:20;100916.03;;;24.64;60.56
19860;BME280;2395;50.738;7.122;2022-08-19T09:26:48;100908.28;;;24.72;59.67
19860;BME280;2395;50.738;7.122;2022-08-19T09:29:15;100911.88;;;24.90;59.36
19860;BME280;2395;50.738;7.122;2022-08-19T09:31:42;100901.88;;;25.22;58.62
19860;BME280;2395;50.738;7.122;2022-08-19T09:34:09;100903.25;;;25.26;59.12
19860;BME280;2395;50.738;7.122;2022-08-19T09:36:36;100910.81;;;25.38;58.15
19860;BME280;2395;50.738;7.122;2022-08-19T09:39:05;100916.94;;;25.39;57.83
19860;BME280;2395;50.738;7.122;2022-08-19T09:41:33;100906.16;;;25.23;57.42
19860;BME280;2395;50.738;7.122;2022-08-19T09:44:02;100907.66;;;25.35;58.14
19860;BME280;2395;50.738;7.122;2022-08-19T09:46:29;100911.94;;;25.45;57.36
19860;BME280;2395;50.738;7.122;2022-08-19T09:48:59;100906.69;;;25.36;56.10
19860;BME280;2395;50.738;7.122;2022-08-19T09:51:27;100902.13;;;25.38;56.69
19860;BME280;2395;50.738;7.122;2022-08-19T09:53:59;100901.69;;;25.42;58.12
19860;BME280;2395;50.738;7.122;2022-08-19T09:56:27;100901.78;;;25.60;56.27
19860;BME280;2395;50.738;7.122;2022-08-19T09:58:54;100909.44;;;25.80;56.24
19860;BME280;2395;50.738;7.122;2022-08-19T10:01:28;100906.63;;;25.55;56.61
19860;BME280;2395;50.738;7.122;2022-08-19T10:03:58;100898.09;;;25.34;57.52
19860;BME280;2395;50.738;7.122;2022-08-19T10:06:28;100900.91;;;25.69;55.85
19860;BME280;2395;50.738;7.122;2022-08-19T10:08:58;100903.75;;;25.85;54.35
19860;BME280;2395;50.738;7.122;2022-08-19T10:11:26;100904.72;;;25.84;54.71
19860;BME280;2395;50.738;7.122;2022-08-19T10:13:54;100899.09;;;25.96;53.81
19860;BME280;2395;50.738;7.122;2022-08-19T10:16:24;100900.31;;;26.28;53.75
19860;BME280;2395;50.738;7.122;2022-08-19T10:18:53;100894.44;;;26.34;53.61
19860;BME280;2395;50.738;7.122;2022-08-19T10:21:23;100906.94;;;26.05;54.54
19860;BME280;2395;50.738;7.122;2022-08-19T10:23:54;100893.44;;;26.18;54.66
19860;BME280;2395;50.738;7.122;2022-08-19T10:26:25;100894.16;;;26.10;53.26
19860;BME280;2395;50.738;7.122;2022-08-19T10:28:52;100891.22;;;26.58;52.77
19860;BME280;2395;50.738;7.122;2022-08-19T10:31:27;100884.03;;;26.85;51.87
19860;BME280;2395;50.738;7.122;2022-08-19T10:33:55;100876.91;;;26.60;52.58
19860;BME280;2395;50.738;7.122;2022-08-19T10:36:27;100874.50;;;26.67;52.36
19860;BME280;2395;50.738;7.122;2022-08-19T10:38:58;100873.41;;;26.52;52.60
19860;BME280;2395;50.738;7.122;2022-08-19T10:41:30;100875.63;;;26.82;51.95
19860;BME280;2395;50.738;7.122;2022-08-19T10:44:00;100888.00;;;26.89;52.43
19860;BME280;2395;50.738;7.122;2022-08-19T10:46:29;100877.13;;;26.49;53.24
19860;BME280;2395;50.738;7.122;2022-08-19T10:48:59;100881.59;;;26.49;52.91
19860;BME280;2395;50.738;7.122;2022-08-19T10:51:29;100879.72;;;26.59;52.98
19860;BME280;2395;50.738;7.122;2022-08-19T10:54:14;100872.63;;;26.59;52.77
19860;BME280;2395;50.738;7.122;2022-08-19T10:56:41;100865.78;;;26.66;51.56
19860;BME280;2395;50.738;7.122;2022-08-19T10:59:19;100868.63;;;26.98;50.20
19860;BME280;2395;50.738;7.122;2022-08-19T11:01:50;100865.66;;;27.10;49.86
19860;BME280;2395;50.738;7.122;2022-08-19T11:04:18;100859.03;;;26.89;50.20
19860;BME280;2395;50.738;7.122;2022-08-19T11:06:48;100863.66;;;26.87;50.00
19860;BME280;2395;50.738;7.122;2022-08-19T11:09:19;100860.81;;;26.63;50.68
19860;BME280;2395;50.738;7.122;2022-08-19T11:11:46;100860.84;;;27.06;49.71
19860;BME280;2395;50.738;7.122;2022-08-19T11:14:17;100851.84;;;27.50;48.96
19860;BME280;2395;50.738;7.122;2022-08-19T11:16:48;100854.09;;;27.70;47.85
19860;BME280;2395;50.738;7.122;2022-08-19T11:19:16;100844.16;;;28.13;46.95
19860;BME280;2395;50.738;7.122;2022-08-19T11:21:47;100849.97;;;27.75;47.30
19860;BME280;2395;50.738;7.122;2022-08-19T11:24:19;100851.63;;;27.76;47.86
19860;BME280;2395;50.738;7.122;2022-08-19T11:26:48;100838.63;;;27.91;47.92
19860;BME280;2395;50.738;7.122;2022-08-19T11:29:18;100851.31;;;27.79;46.35
19860;BME280;2395;50.738;7.122;2022-08-19T11:31:49;100841.31;;;27.58;46.56
19860;BME280;2395;50.738;7.122;2022-08-19T11:34:19;100846.72;;;27.48;46.38
19860;BME280;2395;50.738;7.122;2022-08-19T11:36:48;100843.47;;;28.03;45.58
19860;BME280;2395;50.738;7.122;2022-08-19T11:39:20;100837.25;;;27.71;46.17
19860;BME280;2395;50.738;7.122;2022-08-19T11:41:48;100843.53;;;27.37;46.52
19860;BME280;2395;50.738;7.122;2022-08-19T11:44:15;100836.66;;;27.77;45.33
19860;BME280;2395;50.738;7.122;2022-08-19T11:46:44;100834.06;;;27.60;45.66
19860;BME280;2395;50.738;7.122;2022-08-19T11:49:14;100836.75;;;27.68;46.17
19860;BME280;2395;50.738;7.122;2022-08-19T11:51:42;100828.06;;;27.75;45.64
19860;BME280;2395;50.738;7.122;2022-08-19T11:54:11;100830.28;;;28.19;45.27
19860;BME280;2395;50.738;7.122;2022-08-19T11:56:39;100837.50;;;27.52;46.53
19860;BME280;2395;50.738;7.122;2022-08-19T11:59:06;100835.94;;;27.34;46.62
19860;BME280;2395;50.738;7.122;2022-08-19T12:01:34;100842.94;;;27.17;47.06
19860;BME280;2395;50.738;7.122;2022-08-19T12:04:01;100837.59;;;27.35;46.65
19860;BME280;2395;50.738;7.122;2022-08-19T12:06:32;100834.75;;;28.19;44.93
19860;BME280;2395;50.738;7.122;2022-08-19T12:09:04;100832.31;;;28.57;43.51
19860;BME280;2395;50.738;7.122;2022-08-19T12:11:33;100829.34;;;28.68;43.94
19860;BME280;2395;50.738;7.122;2022-08-19T12:14:00;100838.53;;;29.20;42.94
19860;BME280;2395;50.738;7.122;2022-08-19T12:16:30;100838.81;;;29.41;42.32
19860;BME280;2395;50.738;7.122;2022-08-19T12:18:58;100829.00;;;28.87;42.81
19860;BME280;2395;50.738;7.122;2022-08-19T12:21:34;100826.69;;;28.76;43.26
19860;BME280;2395;50.738;7.122;2022-08-19T12:24:04;100822.31;;;29.15;42.73
19860;BME280;2395;50.738;7.122;2022-08-19T12:26:31;100824.91;;;29.47;40.44
19860;BME280;2395;50.738;7.122;2022-08-19T12:28:59;100830.44;;;29.13;41.93
19860;BME280;2395;50.738;7.122;2022-08-19T12:31:26;100824.31;;;29.21;41.57
19860;BME280;2395;50.738;7.122;2022-08-19T12:33:54;100815.16;;;29.31;41.08
19860;BME280;2395;50.738;7.122;2022-08-19T12:36:22;100810.84;;;28.92;40.69
19860;BME280;2395;50.738;7.122;2022-08-19T12:38:52;100803.44;;;28.24;41.64
19860;BME280;2395;50.738;7.122;2022-08-19T12:41:20;100816.31;;;28.43;41.33
19860;BME280;2395;50.738;7.122;2022-08-19T12:43:49;100808.84;;;28.14;41.21
19860;BME280;2395;50.738;7.122;2022-08-19T12:46:18;100816.09;;;28.12;41.80
19860;BME280;2395;50.738;7.122;2022-08-19T12:48:46;100805.06;;;28.96;40.67
19860;BME280;2395;50.738;7.122;2022-08-19T12:51:16;100810.53;;;29.71;39.73
19860;BME280;2395;50.738;7.122;2022-08-19T12:53:45;100804.75;;;29.38;40.59
19860;BME280;2395;50.738;7.122;2022-08-19T12:56:14;100791.34;;;28.85;40.47
19860;BME280;2395;50.738;7.122;2022-08-19T12:58:42;100799.59;;;28.90;41.00
19860;BME280;2395;50.738;7.122;2022-08-19T13:01:13;100788.63;;;29.17;40.83
19860;BME280;2395;50.738;7.122;2022-08-19T13:03:40;100800.22;;;29.08;41.60
19860;BME280;2395;50.738;7.122;2022-08-19T13:06:09;100791.84;;;29.43;41.44
19860;BME280;2395;50.738;7.122;2022-08-19T13:08:36;100806.59;;;29.21;40.40
19860;BME280;2395;50.738;7.122;2022-08-19T13:11:09;100801.19;;;29.15;40.55
19860;BME280;2395;50.738;7.122;2022-08-19T13:13:40;100799.84;;;29.95;38.96